sensor_id;sensor_type;location;lat;lon;timestamp;P1;durP1;ratioP1;P2;durP2;ratioP2
4353;SDS011;11018;51.258;6.806;2022-11-15T00:00:47;23.60;;;14.63;;
4353;SDS011;11018;51.258;6.806;2022-11-15T00:03:16;17.17;;;11.52;;
4353;SDS011;11018;51.258;6.806;2022-11-15T00:05:46;17.00;;;11.57;;
4353;SDS011;11018;51.258;6.806;2022-11-15T00:08:11;20.85;;;13.00;;
4353;SDS011;11018;51.258;6.806;2022-11-15T00:10:37;23.83;;;13.73;;
4353;SDS011;11018;51.258;6.806;2022-11-15T00:13:06;20.77;;;12.75;;
4353;SDS011;11018;51.258;6.806;2022-11-15T00:15:39;19.42;;;12.85;;
4353;SDS011;11018;51.258;6.806;2022-11-15T00:18:06;19.60;;;14.18;;
4353;SDS011;11018;51.258;6.806;2022-11-15T00:20:37;18.42;;;12.65;;
4353;SDS011;11018;51.258;6.806;2022-11-15T00:23:05;18.83;;;12.73;;
4353;SDS011;11018;51.258;6.806;2022-11-15T00:25:31;20.80;;;13.40;;
4353;SDS011;11018;51.258;6.806;2022-11-15T00:27:58;19.98;;;13.38;;
4353;SDS011;11018;51.258;6.806;2022-11-15T00:30:24;21.70;;;12.13;;
4353;SDS011;11018;51.258;6.806;2022-11-15T00:32:50;16.83;;;11.00;;
4353;SDS011;11018;51.258;6.806;2022-11-15T00:35:16;20.80;;;12.00;;
4353;SDS011;11018;51.258;6.806;2022-11-15T00:37:42;17.98;;;12.32;;
4353;SDS011;11018;51.258;6.806;2022-11-15T00:40:08;18.23;;;11.77;;
4353;SDS011;11018;51.258;6.806;2022-11-15T00:42:34;18.35;;;11.95;;
4353;SDS011;11018;51.258;6.806;2022-11-15T00:45:00;19.10;;;12.67;;
4353;SDS011;11018;51.258;6.806;2022-11-15T00:47:26;18.23;;;12.20;;
4353;SDS011;11018;51.258;6.806;2022-11-15T00:49:51;23.20;;;14.00;;
4353;SDS011;11018;51.258;6.806;2022-11-15T00:52:17;20.80;;;13.00;;
4353;SDS011;11018;51.258;6.806;2022-11-15T00:54:42;19.48;;;12.88;;
4353;SDS011;11018;51.258;6.806;2022-11-15T00:57:08;20.30;;;13.45;;
4353;SDS011;11018;51.258;6.806;2022-11-15T00:59:33;19.27;;;12.60;;
4353;SDS011;11018;51.258;6.806;2022-11-15T01:01:59;23.85;;;13.40;;
4353;SDS011;11018;51.258;6.806;2022-11-15T01:04:25;21.17;;;13.53;;
4353;SDS011;11018;51.258;6.806;2022-11-15T01:06:50;19.83;;;12.30;;
4353;SDS011;11018;51.258;6.806;2022-11-15T01:09:16;21.53;;;13.17;;
4353;SDS011;11018;51.258;6.806;2022-11-15T01:11:41;23.05;;;14.75;;
4353;SDS011;11018;51.258;6.806;2022-11-15T01:14:07;22.75;;;14.27;;
4353;SDS011;11018;51.258;6.806;2022-11-15T01:16:32;18.30;;;12.05;;
4353;SDS011;11018;51.258;6.806;2022-11-15T01:18:58;18.92;;;13.55;;
4353;SDS011;11018;51.258;6.806;2022-11-15T01:21:24;18.73;;;12.40;;
4353;SDS011;11018;51.258;6.806;2022-11-15T01:23:53;19.40;;;12.40;;
4353;SDS011;11018;51.258;6.806;2022-11-15T01:26:20;19.77;;;13.10;;
4353;SDS011;11018;51.258;6.806;2022-11-15T01:28:45;20.85;;;13.85;;
4353;SDS011;11018;51.258;6.806;2022-11-15T01:31:12;21.73;;;13.40;;
4353;SDS011;11018;51.258;6.806;2022-11-15T01:33:40;21.10;;;13.68;;
4353;SDS011;11018;51.258;6.806;2022-11-15T01:36:07;19.98;;;12.15;;
4353;SDS011;11018;51.258;6.806;2022-11-15T01:38:34;19.67;;;12.00;;
4353;SDS011;11018;51.258;6.806;2022-11-15T01:41:00;22.57;;;12.40;;
4353;SDS011;11018;51.258;6.806;2022-11-15T01:43:29;18.17;;;11.57;;
4353;SDS011;11018;51.258;6.806;2022-11-15T01:46:02;20.75;;;14.52;;
4353;SDS011;11018;51.258;6.806;2022-11-15T01:48:32;19.20;;;12.82;;
4353;SDS011;11018;51.258;6.806;2022-11-15T01:51:02;22.45;;;13.82;;
4353;SDS011;11018;51.258;6.806;2022-11-15T01:53:32;19.58;;;11.32;;
4353;SDS011;11018;51.258;6.806;2022-11-15T01:56:05;16.77;;;11.95;;
4353;SDS011;11018;51.258;6.806;2022-11-15T01:58:33;17.95;;;11.95;;
4353;SDS011;11018;51.258;6.806;2022-11-15T02:01:00;17.30;;;11.43;;
4353;SDS011;11018;51.258;6.806;2022-11-15T02:03:26;19.02;;;11.20;;
4353;SDS011;11018;51.258;6.806;2022-11-15T02:06:02;18.73;;;12.10;;
4353;SDS011;11018;51.258;6.806;2022-11-15T02:08:29;26.20;;;12.20;;
4353;SDS011;11018;51.258;6.806;2022-11-15T02:10:55;19.20;;;12.77;;
4353;SDS011;11018;51.258;6.806;2022-11-15T02:13:20;17.30;;;12.50;;
4353;SDS011;11018;51.258;6.806;2022-11-15T02:15:52;20.90;;;12.30;;
4353;SDS011;11018;51.258;6.806;2022-11-15T02:18:40;20.80;;;12.17;;
4353;SDS011;11018;51.258;6.806;2022-11-15T02:24:05;15.82;;;11.55;;
4353;SDS011;11018;51.258;6.806;2022-11-15T02:29:35;18.73;;;11.50;;
4353;SDS011;11018;51.258;6.806;2022-11-15T02:32:24;21.93;;;13.27;;
4353;SDS011;11018;51.258;6.806;2022-11-15T02:38:07;20.98;;;12.07;;
4353;SDS011;11018;51.258;6.806;2022-11-15T02:43:10;18.30;;;11.45;;
4353;SDS011;11018;51.258;6.806;2022-11-15T02:46:01;18.77;;;12.32;;
4353;SDS011;11018;51.258;6.806;2022-11-15T02:48:32;18.23;;;12.63;;
4353;SDS011;11018;51.258;6.806;2022-11-15T02:50:59;20.55;;;11.80;;
4353;SDS011;11018;51.258;6.806;2022-11-15T02:53:26;22.13;;;13.18;;
4353;SDS011;11018;51.258;6.806;2022-11-15T02:55:52;20.77;;;13.52;;
4353;SDS011;11018;51.258;6.806;2022-11-15T03:01:41;22.05;;;13.55;;
4353;SDS011;11018;51.258;6.806;2022-11-15T03:07:18;21.23;;;11.55;;
4353;SDS011;11018;51.258;6.806;2022-11-15T03:10:00;18.33;;;11.20;;
4353;SDS011;11018;51.258;6.806;2022-11-15T03:13:18;18.80;;;12.30;;
4353;SDS011;11018;51.258;6.806;2022-11-15T03:15:31;19.40;;;11.43;;
4353;SDS011;11018;51.258;6.806;2022-11-15T03:18:03;17.67;;;12.10;;
4353;SDS011;11018;51.258;6.806;2022-11-15T03:20:33;19.17;;;12.23;;
4353;SDS011;11018;51.258;6.806;2022-11-15T03:23:01;19.83;;;12.73;;
4353;SDS011;11018;51.258;6.806;2022-11-15T03:25:30;20.42;;;11.50;;
4353;SDS011;11018;51.258;6.806;2022-11-15T03:27:58;25.42;;;12.60;;
4353;SDS011;11018;51.258;6.806;2022-11-15T03:30:28;20.50;;;13.27;;
4353;SDS011;11018;51.258;6.806;2022-11-15T03:32:57;17.40;;;11.80;;
4353;SDS011;11018;51.258;6.806;2022-11-15T03:35:25;18.13;;;11.25;;
4353;SDS011;11018;51.258;6.806;2022-11-15T03:37:59;18.65;;;11.10;;
4353;SDS011;11018;51.258;6.806;2022-11-15T03:40:35;16.58;;;11.60;;
4353;SDS011;11018;51.258;6.806;2022-11-15T03:43:20;17.35;;;12.10;;
4353;SDS011;11018;51.258;6.806;2022-11-15T03:45:55;19.25;;;12.45;;
4353;SDS011;11018;51.258;6.806;2022-11-15T03:48:26;18.20;;;11.25;;
4353;SDS011;11018;51.258;6.806;2022-11-15T03:50:58;17.23;;;11.50;;
4353;SDS011;11018;51.258;6.806;2022-11-15T03:53:24;16.80;;;11.90;;
4353;SDS011;11018;51.258;6.806;2022-11-15T03:55:50;20.43;;;12.23;;
4353;SDS011;11018;51.258;6.806;2022-11-15T03:58:15;18.90;;;11.30;;
4353;SDS011;11018;51.258;6.806;2022-11-15T04:00:41;19.27;;;11.82;;
4353;SDS011;11018;51.258;6.806;2022-11-15T04:03:06;18.20;;;10.82;;
4353;SDS011;11018;51.258;6.806;2022-11-15T04:05:32;15.82;;;10.77;;
4353;SDS011;11018;51.258;6.806;2022-11-15T04:07:58;17.70;;;11.13;;
4353;SDS011;11018;51.258;6.806;2022-11-15T04:10:24;17.93;;;11.00;;
4353;SDS011;11018;51.258;6.806;2022-11-15T04:12:49;16.38;;;10.23;;
4353;SDS011;11018;51.258;6.806;2022-11-15T04:15:16;14.35;;;10.27;;
4353;SDS011;11018;51.258;6.806;2022-11-15T04:17:44;19.35;;;11.00;;
4353;SDS011;11018;51.258;6.806;2022-11-15T04:22:59;19.65;;;11.48;;
4353;SDS011;11018;51.258;6.806;2022-11-15T04:25:44;14.10;;;10.27;;
4353;SDS011;11018;51.258;6.806;2022-11-15T04:28:11;14.18;;;10.18;;
4353;SDS011;11018;51.258;6.806;2022-11-15T04:30:37;13.77;;;10.52;;
4353;SDS011;11018;51.258;6.806;2022-11-15T04:33:03;13.68;;;10.45;;
4353;SDS011;11018;51.258;6.806;2022-11-15T04:35:28;15.30;;;10.77;;
4353;SDS011;11018;51.258;6.806;2022-11-15T04:37:55;16.17;;;10.23;;
4353;SDS011;11018;51.258;6.806;2022-11-15T04:40:21;14.30;;;9.47;;
4353;SDS011;11018;51.258;6.806;2022-11-15T04:42:47;17.03;;;10.10;;
4353;SDS011;11018;51.258;6.806;2022-11-15T04:45:12;14.30;;;10.33;;
4353;SDS011;11018;51.258;6.806;2022-11-15T04:47:38;17.07;;;11.60;;
4353;SDS011;11018;51.258;6.806;2022-11-15T04:50:03;14.07;;;9.43;;
4353;SDS011;11018;51.258;6.806;2022-11-15T04:52:29;19.98;;;10.73;;
4353;SDS011;11018;51.258;6.806;2022-11-15T04:54:55;13.37;;;10.60;;
4353;SDS011;11018;51.258;6.806;2022-11-15T04:57:21;14.20;;;9.70;;
4353;SDS011;11018;51.258;6.806;2022-11-15T04:59:46;16.10;;;11.52;;
4353;SDS011;11018;51.258;6.806;2022-11-15T05:02:12;13.20;;;10.48;;
4353;SDS011;11018;51.258;6.806;2022-11-15T05:04:37;16.00;;;10.70;;
4353;SDS011;11018;51.258;6.806;2022-11-15T05:07:03;15.70;;;10.37;;
4353;SDS011;11018;51.258;6.806;2022-11-15T05:09:31;16.88;;;10.27;;
4353;SDS011;11018;51.258;6.806;2022-11-15T05:11:57;13.80;;;10.00;;
4353;SDS011;11018;51.258;6.806;2022-11-15T05:14:22;13.35;;;9.77;;
4353;SDS011;11018;51.258;6.806;2022-11-15T05:16:48;15.20;;;10.60;;
4353;SDS011;11018;51.258;6.806;2022-11-15T05:19:14;13.13;;;9.43;;
4353;SDS011;11018;51.258;6.806;2022-11-15T05:21:39;16.53;;;10.87;;
4353;SDS011;11018;51.258;6.806;2022-11-15T05:24:05;16.98;;;11.10;;
4353;SDS011;11018;51.258;6.806;2022-11-15T05:26:31;16.33;;;10.75;;
4353;SDS011;11018;51.258;6.806;2022-11-15T05:28:58;14.50;;;11.13;;
4353;SDS011;11018;51.258;6.806;2022-11-15T05:31:24;17.58;;;9.95;;
4353;SDS011;11018;51.258;6.806;2022-11-15T05:33:51;16.15;;;10.82;;
4353;SDS011;11018;51.258;6.806;2022-11-15T05:36:37;14.23;;;10.70;;
4353;SDS011;11018;51.258;6.806;2022-11-15T05:39:07;14.27;;;10.77;;
4353;SDS011;11018;51.258;6.806;2022-11-15T05:41:35;15.05;;;11.68;;
4353;SDS011;11018;51.258;6.806;2022-11-15T05:44:07;17.17;;;11.20;;
4353;SDS011;11018;51.258;6.806;2022-11-15T05:46:34;18.17;;;11.80;;
4353;SDS011;11018;51.258;6.806;2022-11-15T05:49:04;19.95;;;11.63;;
4353;SDS011;11018;51.258;6.806;2022-11-15T05:51:34;14.48;;;10.30;;
4353;SDS011;11018;51.258;6.806;2022-11-15T05:54:00;16.17;;;11.23;;
4353;SDS011;11018;51.258;6.806;2022-11-15T05:56:26;14.57;;;11.27;;
4353;SDS011;11018;51.258;6.806;2022-11-15T05:58:53;14.13;;;11.10;;
4353;SDS011;11018;51.258;6.806;2022-11-15T06:01:21;14.10;;;10.90;;
4353;SDS011;11018;51.258;6.806;2022-11-15T06:03:47;14.98;;;11.70;;
4353;SDS011;11018;51.258;6.806;2022-11-15T06:06:13;13.23;;;10.73;;
4353;SDS011;11018;51.258;6.806;2022-11-15T06:08:39;14.73;;;10.82;;
4353;SDS011;11018;51.258;6.806;2022-11-15T06:11:05;15.43;;;11.20;;
4353;SDS011;11018;51.258;6.806;2022-11-15T06:13:31;12.68;;;10.73;;
4353;SDS011;11018;51.258;6.806;2022-11-15T06:15:57;15.52;;;11.57;;
4353;SDS011;11018;51.258;6.806;2022-11-15T06:18:23;13.30;;;9.63;;
4353;SDS011;11018;51.258;6.806;2022-11-15T06:20:49;13.40;;;9.70;;
4353;SDS011;11018;51.258;6.806;2022-11-15T06:23:14;11.85;;;9.98;;
4353;SDS011;11018;51.258;6.806;2022-11-15T06:25:40;14.68;;;10.40;;
4353;SDS011;11018;51.258;6.806;2022-11-15T06:28:05;14.18;;;10.02;;
4353;SDS011;11018;51.258;6.806;2022-11-15T06:30:31;17.00;;;10.93;;
4353;SDS011;11018;51.258;6.806;2022-11-15T06:33:00;14.80;;;10.60;;
4353;SDS011;11018;51.258;6.806;2022-11-15T06:35:27;14.07;;;10.20;;
4353;SDS011;11018;51.258;6.806;2022-11-15T06:37:53;13.80;;;10.25;;
4353;SDS011;11018;51.258;6.806;2022-11-15T06:40:19;11.87;;;8.80;;
4353;SDS011;11018;51.258;6.806;2022-11-15T06:42:45;14.73;;;8.63;;
4353;SDS011;11018;51.258;6.806;2022-11-15T06:45:10;11.07;;;8.80;;
4353;SDS011;11018;51.258;6.806;2022-11-15T06:47:43;11.07;;;7.80;;
4353;SDS011;11018;51.258;6.806;2022-11-15T06:50:10;10.37;;;8.57;;
4353;SDS011;11018;51.258;6.806;2022-11-15T06:52:36;15.03;;;9.73;;
4353;SDS011;11018;51.258;6.806;2022-11-15T06:55:01;11.77;;;9.50;;
4353;SDS011;11018;51.258;6.806;2022-11-15T06:57:27;12.57;;;8.50;;
4353;SDS011;11018;51.258;6.806;2022-11-15T06:59:52;11.23;;;8.30;;
4353;SDS011;11018;51.258;6.806;2022-11-15T07:02:18;9.88;;;7.60;;
4353;SDS011;11018;51.258;6.806;2022-11-15T07:04:43;10.90;;;8.33;;
4353;SDS011;11018;51.258;6.806;2022-11-15T07:07:09;12.03;;;8.40;;
4353;SDS011;11018;51.258;6.806;2022-11-15T07:09:35;11.07;;;7.57;;
4353;SDS011;11018;51.258;6.806;2022-11-15T07:12:00;10.20;;;7.27;;
4353;SDS011;11018;51.258;6.806;2022-11-15T07:14:26;9.27;;;6.70;;
4353;SDS011;11018;51.258;6.806;2022-11-15T07:16:51;9.40;;;7.50;;
4353;SDS011;11018;51.258;6.806;2022-11-15T07:19:17;9.53;;;6.87;;
4353;SDS011;11018;51.258;6.806;2022-11-15T07:21:42;10.87;;;7.07;;
4353;SDS011;11018;51.258;6.806;2022-11-15T07:24:08;9.23;;;6.80;;
4353;SDS011;11018;51.258;6.806;2022-11-15T07:26:33;8.77;;;6.25;;
4353;SDS011;11018;51.258;6.806;2022-11-15T07:28:59;8.40;;;5.90;;
4353;SDS011;11018;51.258;6.806;2022-11-15T07:31:24;8.38;;;6.10;;
4353;SDS011;11018;51.258;6.806;2022-11-15T07:33:50;9.60;;;5.93;;
4353;SDS011;11018;51.258;6.806;2022-11-15T07:36:16;6.93;;;5.33;;
4353;SDS011;11018;51.258;6.806;2022-11-15T07:38:41;7.40;;;5.40;;
4353;SDS011;11018;51.258;6.806;2022-11-15T07:41:07;7.20;;;5.00;;
4353;SDS011;11018;51.258;6.806;2022-11-15T07:43:33;6.72;;;4.78;;
4353;SDS011;11018;51.258;6.806;2022-11-15T07:45:59;9.32;;;5.32;;
4353;SDS011;11018;51.258;6.806;2022-11-15T07:48:34;7.20;;;5.47;;
4353;SDS011;11018;51.258;6.806;2022-11-15T07:51:00;6.70;;;4.97;;
4353;SDS011;11018;51.258;6.806;2022-11-15T07:53:26;10.50;;;5.27;;
4353;SDS011;11018;51.258;6.806;2022-11-15T07:55:52;9.93;;;6.03;;
4353;SDS011;11018;51.258;6.806;2022-11-15T07:58:18;6.75;;;5.10;;
4353;SDS011;11018;51.258;6.806;2022-11-15T08:00:44;8.60;;;5.25;;
4353;SDS011;11018;51.258;6.806;2022-11-15T08:03:13;6.40;;;4.80;;
4353;SDS011;11018;51.258;6.806;2022-11-15T08:05:41;11.90;;;4.90;;
4353;SDS011;11018;51.258;6.806;2022-11-15T08:08:07;9.60;;;5.05;;
4353;SDS011;11018;51.258;6.806;2022-11-15T08:10:34;8.45;;;4.97;;
4353;SDS011;11018;51.258;6.806;2022-11-15T08:13:03;12.27;;;5.28;;
4353;SDS011;11018;51.258;6.806;2022-11-15T08:15:30;13.95;;;6.40;;
4353;SDS011;11018;51.258;6.806;2022-11-15T08:17:57;9.32;;;5.68;;
4353;SDS011;11018;51.258;6.806;2022-11-15T08:20:24;8.63;;;5.57;;
4353;SDS011;11018;51.258;6.806;2022-11-15T08:22:50;10.88;;;5.88;;
4353;SDS011;11018;51.258;6.806;2022-11-15T08:25:15;10.43;;;5.30;;
4353;SDS011;11018;51.258;6.806;2022-11-15T08:27:41;8.93;;;5.20;;
4353;SDS011;11018;51.258;6.806;2022-11-15T08:30:07;13.18;;;5.50;;
4353;SDS011;11018;51.258;6.806;2022-11-15T08:32:33;13.30;;;5.70;;
4353;SDS011;11018;51.258;6.806;2022-11-15T08:34:58;9.43;;;5.10;;
4353;SDS011;11018;51.258;6.806;2022-11-15T08:37:24;12.43;;;5.43;;
4353;SDS011;11018;51.258;6.806;2022-11-15T08:39:49;11.60;;;5.60;;
4353;SDS011;11018;51.258;6.806;2022-11-15T08:42:15;11.43;;;5.60;;
4353;SDS011;11018;51.258;6.806;2022-11-15T08:44:41;7.28;;;5.40;;
4353;SDS011;11018;51.258;6.806;2022-11-15T08:47:07;12.00;;;5.07;;
4353;SDS011;11018;51.258;6.806;2022-11-15T08:49:35;6.85;;;4.30;;
4353;SDS011;11018;51.258;6.806;2022-11-15T08:52:01;9.18;;;3.72;;
4353;SDS011;11018;51.258;6.806;2022-11-15T08:54:26;9.90;;;4.00;;
4353;SDS011;11018;51.258;6.806;2022-11-15T08:56:52;7.03;;;4.00;;
4353;SDS011;11018;51.258;6.806;2022-11-15T08:59:17;8.52;;;3.90;;
4353;SDS011;11018;51.258;6.806;2022-11-15T09:01:43;5.72;;;3.88;;
4353;SDS011;11018;51.258;6.806;2022-11-15T09:04:08;7.30;;;3.70;;
4353;SDS011;11018;51.258;6.806;2022-11-15T09:06:34;10.10;;;4.17;;
4353;SDS011;11018;51.258;6.806;2022-11-15T09:09:00;11.73;;;4.27;;
4353;SDS011;11018;51.258;6.806;2022-11-15T09:11:26;6.30;;;3.35;;
4353;SDS011;11018;51.258;6.806;2022-11-15T09:13:52;8.05;;;3.88;;
4353;SDS011;11018;51.258;6.806;2022-11-15T09:16:17;10.93;;;4.30;;
4353;SDS011;11018;51.258;6.806;2022-11-15T09:18:43;6.70;;;3.80;;
4353;SDS011;11018;51.258;6.806;2022-11-15T09:21:09;8.57;;;2.90;;
4353;SDS011;11018;51.258;6.806;2022-11-15T09:23:35;5.03;;;3.08;;
4353;SDS011;11018;51.258;6.806;2022-11-15T09:26:01;7.00;;;3.55;;
4353;SDS011;11018;51.258;6.806;2022-11-15T09:28:28;11.98;;;4.10;;
4353;SDS011;11018;51.258;6.806;2022-11-15T09:31:01;6.35;;;3.00;;
4353;SDS011;11018;51.258;6.806;2022-11-15T09:33:29;7.07;;;3.77;;
4353;SDS011;11018;51.258;6.806;2022-11-15T09:35:59;3.10;;;2.70;;
4353;SDS011;11018;51.258;6.806;2022-11-15T09:38:26;12.63;;;3.10;;
4353;SDS011;11018;51.258;6.806;2022-11-15T09:46:33;12.13;;;4.17;;
4353;SDS011;11018;51.258;6.806;2022-11-15T09:49:25;5.40;;;3.10;;
4353;SDS011;11018;51.258;6.806;2022-11-15T09:51:52;7.73;;;3.30;;
4353;SDS011;11018;51.258;6.806;2022-11-15T09:54:32;4.60;;;2.90;;
4353;SDS011;11018;51.258;6.806;2022-11-15T09:57:13;5.75;;;3.60;;
4353;SDS011;11018;51.258;6.806;2022-11-15T09:59:48;6.25;;;2.67;;
4353;SDS011;11018;51.258;6.806;2022-11-15T10:02:51;4.85;;;2.72;;
4353;SDS011;11018;51.258;6.806;2022-11-15T10:05:56;5.37;;;2.10;;
4353;SDS011;11018;51.258;6.806;2022-11-15T10:10:52;7.40;;;3.40;;
4353;SDS011;11018;51.258;6.806;2022-11-15T10:13:24;4.05;;;2.30;;
4353;SDS011;11018;51.258;6.806;2022-11-15T10:15:52;3.78;;;2.05;;
4353;SDS011;11018;51.258;6.806;2022-11-15T10:20:59;6.13;;;3.10;;
4353;SDS011;11018;51.258;6.806;2022-11-15T10:23:35;10.95;;;3.50;;
4353;SDS011;11018;51.258;6.806;2022-11-15T10:26:01;6.10;;;2.83;;
4353;SDS011;11018;51.258;6.806;2022-11-15T10:28:32;10.80;;;2.97;;
4353;SDS011;11018;51.258;6.806;2022-11-15T10:30:59;14.10;;;3.30;;
4353;SDS011;11018;51.258;6.806;2022-11-15T10:44:06;6.63;;;2.60;;
4353;SDS011;11018;51.258;6.806;2022-11-15T10:46:40;10.48;;;4.50;;
4353;SDS011;11018;51.258;6.806;2022-11-15T10:49:23;4.47;;;2.40;;
4353;SDS011;11018;51.258;6.806;2022-11-15T10:51:54;5.83;;;2.93;;
4353;SDS011;11018;51.258;6.806;2022-11-15T10:56:54;7.60;;;3.00;;
4353;SDS011;11018;51.258;6.806;2022-11-15T10:59:23;6.18;;;2.60;;
4353;SDS011;11018;51.258;6.806;2022-11-15T11:01:56;11.73;;;3.40;;
4353;SDS011;11018;51.258;6.806;2022-11-15T11:04:22;15.00;;;2.50;;
4353;SDS011;11018;51.258;6.806;2022-11-15T11:06:55;6.25;;;2.50;;
4353;SDS011;11018;51.258;6.806;2022-11-15T11:12:05;13.13;;;2.75;;
4353;SDS011;11018;51.258;6.806;2022-11-15T11:14:35;7.28;;;2.30;;
4353;SDS011;11018;51.258;6.806;2022-11-15T11:25:33;12.73;;;6.22;;
4353;SDS011;11018;51.258;6.806;2022-11-15T11:28:14;4.43;;;2.50;;
4353;SDS011;11018;51.258;6.806;2022-11-15T11:31:00;6.00;;;1.90;;
4353;SDS011;11018;51.258;6.806;2022-11-15T11:39:24;7.47;;;2.20;;
4353;SDS011;11018;51.258;6.806;2022-11-15T11:42:33;5.07;;;1.75;;
4353;SDS011;11018;51.258;6.806;2022-11-15T11:45:23;10.03;;;4.33;;
4353;SDS011;11018;51.258;6.806;2022-11-15T11:50:33;4.97;;;1.50;;
4353;SDS011;11018;51.258;6.806;2022-11-15T11:53:03;5.97;;;2.50;;
4353;SDS011;11018;51.258;6.806;2022-11-15T11:55:38;7.20;;;1.80;;
4353;SDS011;11018;51.258;6.806;2022-11-15T12:00:53;6.10;;;1.90;;
4353;SDS011;11018;51.258;6.806;2022-11-15T12:03:37;4.10;;;1.52;;
4353;SDS011;11018;51.258;6.806;2022-11-15T12:14:16;5.50;;;2.25;;
4353;SDS011;11018;51.258;6.806;2022-11-15T12:16:49;7.88;;;1.60;;
4353;SDS011;11018;51.258;6.806;2022-11-15T12:19:15;8.40;;;2.00;;
4353;SDS011;11018;51.258;6.806;2022-11-15T12:21:46;7.15;;;2.10;;
4353;SDS011;11018;51.258;6.806;2022-11-15T12:24:32;5.72;;;2.55;;
4353;SDS011;11018;51.258;6.806;2022-11-15T12:29:47;11.23;;;2.67;;
4353;SDS011;11018;51.258;6.806;2022-11-15T12:34:58;5.55;;;2.45;;
4353;SDS011;11018;51.258;6.806;2022-11-15T12:37:32;8.10;;;2.75;;
4353;SDS011;11018;51.258;6.806;2022-11-15T12:40:04;9.00;;;2.75;;
4353;SDS011;11018;51.258;6.806;2022-11-15T12:42:56;7.20;;;3.20;;
4353;SDS011;11018;51.258;6.806;2022-11-15T12:48:21;6.22;;;3.45;;
4353;SDS011;11018;51.258;6.806;2022-11-15T12:51:15;12.60;;;3.50;;
4353;SDS011;11018;51.258;6.806;2022-11-15T12:53:34;8.23;;;2.78;;
4353;SDS011;11018;51.258;6.806;2022-11-15T13:11:57;15.02;;;4.07;;
4353;SDS011;11018;51.258;6.806;2022-11-15T13:17:03;7.35;;;2.88;;
4353;SDS011;11018;51.258;6.806;2022-11-15T13:19:44;8.18;;;3.40;;
4353;SDS011;11018;51.258;6.806;2022-11-15T13:22:12;9.13;;;3.20;;
4353;SDS011;11018;51.258;6.806;2022-11-15T13:24:56;6.93;;;3.63;;
4353;SDS011;11018;51.258;6.806;2022-11-15T13:27:22;7.18;;;3.15;;
4353;SDS011;11018;51.258;6.806;2022-11-15T13:29:48;6.25;;;2.65;;
4353;SDS011;11018;51.258;6.806;2022-11-15T13:32:14;5.23;;;2.00;;
4353;SDS011;11018;51.258;6.806;2022-11-15T13:34:47;8.05;;;2.00;;
4353;SDS011;11018;51.258;6.806;2022-11-15T13:39:46;8.30;;;3.65;;
4353;SDS011;11018;51.258;6.806;2022-11-15T13:42:15;6.28;;;3.15;;
4353;SDS011;11018;51.258;6.806;2022-11-15T13:44:58;10.23;;;3.78;;
4353;SDS011;11018;51.258;6.806;2022-11-15T13:47:25;9.88;;;4.00;;
4353;SDS011;11018;51.258;6.806;2022-11-15T13:49:52;9.73;;;3.20;;
4353;SDS011;11018;51.258;6.806;2022-11-15T13:52:18;10.23;;;3.60;;
4353;SDS011;11018;51.258;6.806;2022-11-15T13:59:48;6.28;;;2.67;;
4353;SDS011;11018;51.258;6.806;2022-11-15T14:02:18;6.75;;;2.55;;
4353;SDS011;11018;51.258;6.806;2022-11-15T14:04:56;9.27;;;3.67;;
4353;SDS011;11018;51.258;6.806;2022-11-15T14:07:40;12.00;;;3.90;;
4353;SDS011;11018;51.258;6.806;2022-11-15T14:12:54;8.87;;;3.37;;
4353;SDS011;11018;51.258;6.806;2022-11-15T14:15:33;8.23;;;3.60;;
4353;SDS011;11018;51.258;6.806;2022-11-15T14:18:00;10.67;;;4.23;;
4353;SDS011;11018;51.258;6.806;2022-11-15T14:22:57;11.50;;;3.90;;
4353;SDS011;11018;51.258;6.806;2022-11-15T14:25:26;6.10;;;2.83;;
4353;SDS011;11018;51.258;6.806;2022-11-15T14:28:10;11.25;;;3.97;;
4353;SDS011;11018;51.258;6.806;2022-11-15T14:30:38;9.70;;;3.80;;
4353;SDS011;11018;51.258;6.806;2022-11-15T14:33:18;6.68;;;3.72;;
4353;SDS011;11018;51.258;6.806;2022-11-15T14:35:46;4.78;;;3.75;;
4353;SDS011;11018;51.258;6.806;2022-11-15T14:38:11;6.43;;;3.50;;
4353;SDS011;11018;51.258;6.806;2022-11-15T14:40:37;6.70;;;4.07;;
4353;SDS011;11018;51.258;6.806;2022-11-15T14:43:03;6.73;;;3.80;;
4353;SDS011;11018;51.258;6.806;2022-11-15T14:45:28;9.17;;;4.13;;
4353;SDS011;11018;51.258;6.806;2022-11-15T14:47:54;31.90;;;7.30;;
4353;SDS011;11018;51.258;6.806;2022-11-15T14:50:20;12.70;;;4.97;;
4353;SDS011;11018;51.258;6.806;2022-11-15T14:52:46;5.63;;;3.30;;
4353;SDS011;11018;51.258;6.806;2022-11-15T14:55:17;9.33;;;4.50;;
4353;SDS011;11018;51.258;6.806;2022-11-15T14:57:47;4.40;;;3.57;;
4353;SDS011;11018;51.258;6.806;2022-11-15T15:00:13;11.70;;;5.27;;
4353;SDS011;11018;51.258;6.806;2022-11-15T15:02:41;6.53;;;4.47;;
4353;SDS011;11018;51.258;6.806;2022-11-15T15:05:15;11.00;;;6.25;;
4353;SDS011;11018;51.258;6.806;2022-11-15T15:07:43;8.98;;;5.53;;
4353;SDS011;11018;51.258;6.806;2022-11-15T15:10:09;8.60;;;4.35;;
4353;SDS011;11018;51.258;6.806;2022-11-15T15:12:34;7.57;;;4.07;;
4353;SDS011;11018;51.258;6.806;2022-11-15T15:15:00;5.80;;;4.33;;
4353;SDS011;11018;51.258;6.806;2022-11-15T15:17:26;7.23;;;4.43;;
4353;SDS011;11018;51.258;6.806;2022-11-15T15:19:51;7.90;;;3.72;;
4353;SDS011;11018;51.258;6.806;2022-11-15T15:22:17;6.53;;;4.65;;
4353;SDS011;11018;51.258;6.806;2022-11-15T15:24:45;11.60;;;4.70;;
4353;SDS011;11018;51.258;6.806;2022-11-15T15:27:11;6.68;;;4.55;;
4353;SDS011;11018;51.258;6.806;2022-11-15T15:29:37;9.07;;;4.18;;
4353;SDS011;11018;51.258;6.806;2022-11-15T15:32:03;13.03;;;4.87;;
4353;SDS011;11018;51.258;6.806;2022-11-15T15:34:29;9.00;;;3.95;;
4353;SDS011;11018;51.258;6.806;2022-11-15T15:37:08;9.50;;;4.13;;
4353;SDS011;11018;51.258;6.806;2022-11-15T15:39:33;6.22;;;4.28;;
4353;SDS011;11018;51.258;6.806;2022-11-15T15:41:59;6.60;;;4.10;;
4353;SDS011;11018;51.258;6.806;2022-11-15T15:44:24;8.43;;;4.63;;
4353;SDS011;11018;51.258;6.806;2022-11-15T15:46:50;8.00;;;4.10;;
4353;SDS011;11018;51.258;6.806;2022-11-15T15:49:16;6.40;;;4.10;;
4353;SDS011;11018;51.258;6.806;2022-11-15T15:51:41;6.63;;;4.10;;
4353;SDS011;11018;51.258;6.806;2022-11-15T15:54:08;7.30;;;4.40;;
4353;SDS011;11018;51.258;6.806;2022-11-15T15:56:34;8.27;;;4.00;;
4353;SDS011;11018;51.258;6.806;2022-11-15T15:58:59;9.50;;;4.60;;
4353;SDS011;11018;51.258;6.806;2022-11-15T16:01:25;6.93;;;4.20;;
4353;SDS011;11018;51.258;6.806;2022-11-15T16:03:50;9.95;;;5.40;;
4353;SDS011;11018;51.258;6.806;2022-11-15T16:06:49;8.27;;;4.37;;
4353;SDS011;11018;51.258;6.806;2022-11-15T16:09:13;6.03;;;3.70;;
4353;SDS011;11018;51.258;6.806;2022-11-15T16:11:40;6.82;;;3.95;;
4353;SDS011;11018;51.258;6.806;2022-11-15T16:14:07;8.27;;;3.58;;
4353;SDS011;11018;51.258;6.806;2022-11-15T16:16:33;8.07;;;3.50;;
4353;SDS011;11018;51.258;6.806;2022-11-15T16:18:59;10.38;;;4.57;;
4353;SDS011;11018;51.258;6.806;2022-11-15T16:21:25;8.65;;;3.60;;
4353;SDS011;11018;51.258;6.806;2022-11-15T16:23:52;4.95;;;3.40;;
4353;SDS011;11018;51.258;6.806;2022-11-15T16:26:19;5.30;;;4.00;;
4353;SDS011;11018;51.258;6.806;2022-11-15T16:28:46;7.53;;;4.95;;
4353;SDS011;11018;51.258;6.806;2022-11-15T16:31:12;8.60;;;3.78;;
4353;SDS011;11018;51.258;6.806;2022-11-15T16:33:38;5.60;;;3.28;;
4353;SDS011;11018;51.258;6.806;2022-11-15T16:36:05;7.18;;;3.50;;
4353;SDS011;11018;51.258;6.806;2022-11-15T16:38:37;5.67;;;4.20;;
4353;SDS011;11018;51.258;6.806;2022-11-15T16:41:04;10.13;;;4.90;;
4353;SDS011;11018;51.258;6.806;2022-11-15T16:43:29;3.40;;;3.03;;
4353;SDS011;11018;51.258;6.806;2022-11-15T16:45:55;6.65;;;3.67;;
4353;SDS011;11018;51.258;6.806;2022-11-15T16:50:47;6.93;;;3.42;;
4353;SDS011;11018;51.258;6.806;2022-11-15T16:53:13;5.60;;;3.63;;
4353;SDS011;11018;51.258;6.806;2022-11-15T16:55:38;5.90;;;3.80;;